sensor_id;sensor_type;location;lat;lon;timestamp;pressure;altitude;pressure_sealevel;temperature;humidity
55470;BME280;41334;47.872;16.384;2023-09-18T00:03:54;99023.06;;;16.30;77.70
55470;BME280;41334;47.872;16.384;2023-09-18T00:08:56;99015.75;;;16.25;77.76
55470;BME280;41334;47.872;16.384;2023-09-18T00:13:58;99016.50;;;16.22;77.57
55470;BME280;41334;47.872;16.384;2023-09-18T00:19:00;99004.84;;;16.20;77.21
55470;BME280;41334;47.872;16.384;2023-09-18T00:24:03;99004.28;;;16.15;77.77
55470;BME280;41334;47.872;16.384;2023-09-18T00:29:05;99005.47;;;16.14;78.29
55470;BME280;41334;47.872;16.384;2023-09-18T00:34:07;98991.88;;;16.12;78.25
55470;BME280;41334;47.872;16.384;2023-09-18T00:39:09;99002.69;;;16.14;77.54
55470;BME280;41334;47.872;16.384;2023-09-18T00:44:10;98991.13;;;16.15;78.36
55470;BME280;41334;47.872;16.384;2023-09-18T00:49:12;98993.59;;;16.17;79.19
55470;BME280;41334;47.872;16.384;2023-09-18T00:54:16;98984.09;;;16.21;79.54
55470;BME280;41334;47.872;16.384;2023-09-18T00:59:20;98973.00;;;16.25;78.63
55470;BME280;41334;47.872;16.384;2023-09-18T01:04:23;98974.34;;;16.31;79.34
55470;BME280;41334;47.872;16.384;2023-09-18T01:09:27;98960.47;;;16.35;78.92
55470;BME280;41334;47.872;16.384;2023-09-18T01:14:37;98958.09;;;16.37;79.00
55470;BME280;41334;47.872;16.384;2023-09-18T01:19:46;98949.38;;;16.38;78.40
55470;BME280;41334;47.872;16.384;2023-09-18T01:24:48;98956.13;;;16.37;79.38
55470;BME280;41334;47.872;16.384;2023-09-18T01:29:50;98945.41;;;16.39;79.70
55470;BME280;41334;47.872;16.384;2023-09-18T01:34:55;98939.25;;;16.49;79.07
55470;BME280;41334;47.872;16.384;2023-09-18T01:39:58;98928.41;;;16.48;78.75
55470;BME280;41334;47.872;16.384;2023-09-18T01:45:02;98939.31;;;16.53;78.84
55470;BME280;41334;47.872;16.384;2023-09-18T01:50:05;98927.31;;;16.52;79.04
55470;BME280;41334;47.872;16.384;2023-09-18T01:55:07;98923.19;;;16.46;79.37
55470;BME280;41334;47.872;16.384;2023-09-18T02:00:10;98924.78;;;16.47;79.08
55470;BME280;41334;47.872;16.384;2023-09-18T02:05:15;98919.13;;;16.44;78.87
55470;BME280;41334;47.872;16.384;2023-09-18T02:10:17;98920.91;;;16.52;79.95
55470;BME280;41334;47.872;16.384;2023-09-18T02:15:19;98917.16;;;16.44;78.17
55470;BME280;41334;47.872;16.384;2023-09-18T02:20:21;98915.81;;;16.38;78.55
55470;BME280;41334;47.872;16.384;2023-09-18T02:25:23;98913.34;;;16.37;78.94
55470;BME280;41334;47.872;16.384;2023-09-18T02:30:25;98898.50;;;16.32;78.89
55470;BME280;41334;47.872;16.384;2023-09-18T02:35:27;98901.22;;;16.29;79.55
55470;BME280;41334;47.872;16.384;2023-09-18T02:40:29;98897.59;;;16.28;80.08
55470;BME280;41334;47.872;16.384;2023-09-18T02:45:32;98908.59;;;16.21;78.28
55470;BME280;41334;47.872;16.384;2023-09-18T02:50:35;98906.66;;;16.22;80.88
55470;BME280;41334;47.872;16.384;2023-09-18T02:55:38;98904.03;;;16.13;79.70
55470;BME280;41334;47.872;16.384;2023-09-18T03:00:43;98898.81;;;16.12;80.20
55470;BME280;41334;47.872;16.384;2023-09-18T03:05:46;98896.28;;;16.06;80.68
55470;BME280;41334;47.872;16.384;2023-09-18T03:10:48;98898.56;;;16.01;80.55
55470;BME280;41334;47.872;16.384;2023-09-18T03:15:49;98885.28;;;15.98;81.63
55470;BME280;41334;47.872;16.384;2023-09-18T03:20:51;98880.06;;;15.96;82.02
55470;BME280;41334;47.872;16.384;2023-09-18T03:25:54;98873.59;;;15.92;80.41
55470;BME280;41334;47.872;16.384;2023-09-18T03:30:58;98870.34;;;15.90;81.06
55470;BME280;41334;47.872;16.384;2023-09-18T03:36:00;98863.13;;;15.89;82.09
55470;BME280;41334;47.872;16.384;2023-09-18T03:41:07;98858.97;;;15.83;81.76
55470;BME280;41334;47.872;16.384;2023-09-18T03:46:09;98859.63;;;15.76;81.90
55470;BME280;41334;47.872;16.384;2023-09-18T03:51:19;98845.22;;;15.74;82.42
55470;BME280;41334;47.872;16.384;2023-09-18T03:56:22;98841.13;;;15.72;83.06
55470;BME280;41334;47.872;16.384;2023-09-18T04:01:24;98832.41;;;15.73;83.38
55470;BME280;41334;47.872;16.384;2023-09-18T04:06:36;98828.00;;;15.72;82.70
55470;BME280;41334;47.872;16.384;2023-09-18T04:11:38;98824.63;;;15.67;82.33
55470;BME280;41334;47.872;16.384;2023-09-18T04:16:40;98826.97;;;15.65;83.57
55470;BME280;41334;47.872;16.384;2023-09-18T04:21:43;98833.28;;;15.62;83.53
55470;BME280;41334;47.872;16.384;2023-09-18T04:26:45;98836.81;;;15.59;83.31
55470;BME280;41334;47.872;16.384;2023-09-18T04:31:48;98833.13;;;15.54;83.03
55470;BME280;41334;47.872;16.384;2023-09-18T04:36:50;98830.41;;;15.58;82.72
55470;BME280;41334;47.872;16.384;2023-09-18T04:41:52;98823.28;;;15.61;84.56
55470;BME280;41334;47.872;16.384;2023-09-18T04:46:54;98817.25;;;15.59;84.34
55470;BME280;41334;47.872;16.384;2023-09-18T04:51:57;98817.53;;;15.69;82.60
55470;BME280;41334;47.872;16.384;2023-09-18T04:57:00;98796.03;;;16.05;80.72
55470;BME280;41334;47.872;16.384;2023-09-18T05:02:02;98792.69;;;15.99;81.73
55470;BME280;41334;47.872;16.384;2023-09-18T05:07:04;98798.75;;;16.01;82.09
55470;BME280;41334;47.872;16.384;2023-09-18T05:12:06;98798.19;;;16.12;81.84
55470;BME280;41334;47.872;16.384;2023-09-18T05:17:16;98790.03;;;16.22;81.08
55470;BME280;41334;47.872;16.384;2023-09-18T05:22:18;98791.50;;;16.36;81.74
55470;BME280;41334;47.872;16.384;2023-09-18T05:27:20;98791.50;;;16.36;81.74
55470;BME280;41334;47.872;16.384;2023-09-18T05:32:28;98779.13;;;16.37;80.64
55470;BME280;41334;47.872;16.384;2023-09-18T05:37:29;98777.00;;;16.30;79.71
55470;BME280;41334;47.872;16.384;2023-09-18T05:42:32;98764.28;;;16.32;81.35
55470;BME280;41334;47.872;16.384;2023-09-18T05:47:35;98753.25;;;16.40;81.26
55470;BME280;41334;47.872;16.384;2023-09-18T05:52:37;98757.94;;;16.55;79.50
55470;BME280;41334;47.872;16.384;2023-09-18T05:57:39;98757.34;;;16.65;79.85
55470;BME280;41334;47.872;16.384;2023-09-18T06:02:41;98756.63;;;16.88;78.76
55470;BME280;41334;47.872;16.384;2023-09-18T06:07:45;98762.72;;;17.16;77.42
55470;BME280;41334;47.872;16.384;2023-09-18T06:12:46;98747.09;;;17.38;77.24
55470;BME280;41334;47.872;16.384;2023-09-18T06:17:48;98738.41;;;17.70;76.27
55470;BME280;41334;47.872;16.384;2023-09-18T06:22:50;98756.50;;;18.02;74.73
55470;BME280;41334;47.872;16.384;2023-09-18T06:27:53;98755.16;;;18.19;73.53
55470;BME280;41334;47.872;16.384;2023-09-18T06:32:55;98753.69;;;18.32;73.50
55470;BME280;41334;47.872;16.384;2023-09-18T06:37:57;98752.81;;;18.55;72.38
55470;BME280;41334;47.872;16.384;2023-09-18T06:43:00;98754.72;;;18.81;72.14
55470;BME280;41334;47.872;16.384;2023-09-18T06:48:02;98761.50;;;18.80;71.69
55470;BME280;41334;47.872;16.384;2023-09-18T06:53:05;98735.72;;;19.04;71.19
55470;BME280;41334;47.872;16.384;2023-09-18T06:58:07;98740.72;;;19.29;70.93
55470;BME280;41334;47.872;16.384;2023-09-18T07:03:08;98753.75;;;19.44;70.48
55470;BME280;41334;47.872;16.384;2023-09-18T07:08:11;98756.59;;;19.51;70.19
55470;BME280;41334;47.872;16.384;2023-09-18T07:13:14;98754.94;;;19.94;68.70
55470;BME280;41334;47.872;16.384;2023-09-18T07:18:16;98744.63;;;20.20;67.32
55470;BME280;41334;47.872;16.384;2023-09-18T07:23:18;98737.88;;;20.42;66.82
55470;BME280;41334;47.872;16.384;2023-09-18T07:28:20;98736.81;;;20.75;66.10
55470;BME280;41334;47.872;16.384;2023-09-18T07:33:22;98750.97;;;21.00;65.33
55470;BME280;41334;47.872;16.384;2023-09-18T07:38:24;98754.66;;;21.33;63.52
55470;BME280;41334;47.872;16.384;2023-09-18T07:43:26;98740.53;;;21.90;61.67
55470;BME280;41334;47.872;16.384;2023-09-18T07:48:28;98735.56;;;22.34;59.45
55470;BME280;41334;47.872;16.384;2023-09-18T07:53:30;98733.03;;;22.68;58.18
55470;BME280;41334;47.872;16.384;2023-09-18T07:58:34;98730.53;;;22.80;57.42
55470;BME280;41334;47.872;16.384;2023-09-18T08:03:40;98729.19;;;23.10;56.58
55470;BME280;41334;47.872;16.384;2023-09-18T08:08:43;98735.84;;;23.38;55.50
55470;BME280;41334;47.872;16.384;2023-09-18T08:13:45;98741.94;;;23.29;55.07
55470;BME280;41334;47.872;16.384;2023-09-18T08:18:46;98729.34;;;23.41;54.37
55470;BME280;41334;47.872;16.384;2023-09-18T08:23:49;98729.97;;;23.63;52.90
55470;BME280;41334;47.872;16.384;2023-09-18T08:28:51;98716.13;;;23.75;53.74
55470;BME280;41334;47.872;16.384;2023-09-18T08:33:55;98725.41;;;23.76;52.82
55470;BME280;41334;47.872;16.384;2023-09-18T08:38:57;98732.78;;;24.07;52.23
55470;BME280;41334;47.872;16.384;2023-09-18T08:44:03;98741.97;;;24.15;51.21
55470;BME280;41334;47.872;16.384;2023-09-18T08:49:07;98733.97;;;24.48;50.89
55470;BME280;41334;47.872;16.384;2023-09-18T08:54:09;98714.94;;;24.48;50.72
55470;BME280;41334;47.872;16.384;2023-09-18T08:59:12;98719.34;;;24.53;50.95
55470;BME280;41334;47.872;16.384;2023-09-18T09:04:15;98705.97;;;24.53;51.19
55470;BME280;41334;47.872;16.384;2023-09-18T09:09:17;98704.44;;;24.45;50.64
55470;BME280;41334;47.872;16.384;2023-09-18T09:14:21;98715.84;;;24.38;50.96
55470;BME280;41334;47.872;16.384;2023-09-18T09:19:33;98710.44;;;24.81;50.54
55470;BME280;41334;47.872;16.384;2023-09-18T09:24:40;98696.31;;;24.78;49.74
55470;BME280;41334;47.872;16.384;2023-09-18T09:30:01;98701.75;;;24.65;49.06
55470;BME280;41334;47.872;16.384;2023-09-18T09:35:04;98679.91;;;24.66;49.67
55470;BME280;41334;47.872;16.384;2023-09-18T09:40:11;98659.09;;;24.76;49.41
55470;BME280;41334;47.872;16.384;2023-09-18T09:45:16;98652.72;;;24.68;49.36
55470;BME280;41334;47.872;16.384;2023-09-18T09:50:18;98644.81;;;24.56;48.91
55470;BME280;41334;47.872;16.384;2023-09-18T09:55:22;98655.72;;;24.84;48.20
55470;BME280;41334;47.872;16.384;2023-09-18T10:05:36;98625.44;;;25.05;47.92
55470;BME280;41334;47.872;16.384;2023-09-18T10:10:50;98624.06;;;24.89;48.23
55470;BME280;41334;47.872;16.384;2023-09-18T10:15:52;98610.69;;;25.17;47.48
55470;BME280;41334;47.872;16.384;2023-09-18T10:26:14;98603.78;;;25.61;46.99
55470;BME280;41334;47.872;16.384;2023-09-18T10:31:20;68747.22;;;-147.47;100.00
55470;BME280;41334;47.872;16.384;2023-09-18T10:36:25;68747.22;;;-147.47;100.00
55470;BME280;41334;47.872;16.384;2023-09-18T10:41:27;68747.22;;;-147.47;100.00
55470;BME280;41334;47.872;16.384;2023-09-18T10:46:30;68747.22;;;-147.47;100.00
55470;BME280;41334;47.872;16.384;2023-09-18T10:51:34;68747.22;;;-147.47;100.00
55470;BME280;41334;47.872;16.384;2023-09-18T10:56:36;98563.78;;;26.52;47.06
55470;BME280;41334;47.872;16.384;2023-09-18T11:01:37;98559.50;;;26.60;45.47
55470;BME280;41334;47.872;16.384;2023-09-18T11:17:03;98544.91;;;26.94;42.99
55470;BME280;41334;47.872;16.384;2023-09-18T11:22:08;98544.91;;;26.94;42.99
55470;BME280;41334;47.872;16.384;2023-09-18T11:27:11;98547.53;;;26.85;42.85
55470;BME280;41334;47.872;16.384;2023-09-18T11:32:14;98542.91;;;26.75;42.55
55470;BME280;41334;47.872;16.384;2023-09-18T11:37:21;98538.69;;;26.99;43.03
55470;BME280;41334;47.872;16.384;2023-09-18T11:42:23;98525.78;;;27.40;43.41
55470;BME280;41334;47.872;16.384;2023-09-18T11:47:28;98524.34;;;27.48;42.82
55470;BME280;41334;47.872;16.384;2023-09-18T11:52:31;98516.34;;;27.14;43.17
55470;BME280;41334;47.872;16.384;2023-09-18T11:57:36;98519.53;;;27.16;43.71
55470;BME280;41334;47.872;16.384;2023-09-18T12:02:38;98507.00;;;27.13;43.68
55470;BME280;41334;47.872;16.384;2023-09-18T12:07:44;98489.09;;;27.00;44.85
55470;BME280;41334;47.872;16.384;2023-09-18T12:12:50;98483.41;;;27.29;44.33
55470;BME280;41334;47.872;16.384;2023-09-18T12:17:55;68747.22;;;-147.47;100.00
55470;BME280;41334;47.872;16.384;2023-09-18T12:22:57;98483.41;;;27.29;44.33
55470;BME280;41334;47.872;16.384;2023-09-18T12:27:59;98475.13;;;26.89;45.27
55470;BME280;41334;47.872;16.384;2023-09-18T12:33:03;98471.25;;;26.67;45.73
55470;BME280;41334;47.872;16.384;2023-09-18T12:38:18;98458.72;;;26.64;46.32
55470;BME280;41334;47.872;16.384;2023-09-18T12:43:28;98450.44;;;26.70;46.48
55470;BME280;41334;47.872;16.384;2023-09-18T12:48:37;98462.88;;;26.76;45.45
55470;BME280;41334;47.872;16.384;2023-09-18T12:53:40;98458.81;;;26.61;45.99
55470;BME280;41334;47.872;16.384;2023-09-18T12:58:42;68747.22;;;-147.47;100.00
55470;BME280;41334;47.872;16.384;2023-09-18T13:04:04;68747.22;;;-147.47;100.00
55470;BME280;41334;47.872;16.384;2023-09-18T13:09:16;68747.22;;;-147.47;100.00
55470;BME280;41334;47.872;16.384;2023-09-18T13:14:18;68747.22;;;-147.47;100.00
55470;BME280;41334;47.872;16.384;2023-09-18T13:19:20;68747.22;;;-147.47;100.00
55470;BME280;41334;47.872;16.384;2023-09-18T13:24:30;68747.22;;;-147.47;100.00
55470;BME280;41334;47.872;16.384;2023-09-18T13:29:32;68747.22;;;-147.47;100.00
55470;BME280;41334;47.872;16.384;2023-09-18T13:34:34;68747.22;;;-147.47;100.00
55470;BME280;41334;47.872;16.384;2023-09-18T13:39:36;68747.22;;;-147.47;100.00
55470;BME280;41334;47.872;16.384;2023-09-18T13:44:38;68747.22;;;-147.47;100.00
55470;BME280;41334;47.872;16.384;2023-09-18T13:49:40;68747.22;;;-147.47;100.00
55470;BME280;41334;47.872;16.384;2023-09-18T13:54:42;68747.22;;;-147.47;100.00
55470;BME280;41334;47.872;16.384;2023-09-18T13:59:53;68747.22;;;-147.47;100.00
55470;BME280;41334;47.872;16.384;2023-09-18T14:04:55;68747.22;;;-147.47;100.00
55470;BME280;41334;47.872;16.384;2023-09-18T14:09:57;68747.22;;;-147.47;100.00
55470;BME280;41334;47.872;16.384;2023-09-18T14:15:00;68747.22;;;-147.47;100.00
55470;BME280;41334;47.872;16.384;2023-09-18T14:20:03;68747.22;;;-147.47;100.00
55470;BME280;41334;47.872;16.384;2023-09-18T14:25:09;68747.22;;;-147.47;100.00
55470;BME280;41334;47.872;16.384;2023-09-18T14:30:11;68747.22;;;-147.47;100.00
55470;BME280;41334;47.872;16.384;2023-09-18T14:35:15;68747.22;;;-147.47;100.00
55470;BME280;41334;47.872;16.384;2023-09-18T14:40:17;68747.22;;;-147.47;100.00
55470;BME280;41334;47.872;16.384;2023-09-18T14:45:19;68747.22;;;-147.47;100.00
55470;BME280;41334;47.872;16.384;2023-09-18T14:50:21;68747.22;;;-147.47;100.00
55470;BME280;41334;47.872;16.384;2023-09-18T14:55:23;68747.22;;;-147.47;100.00
55470;BME280;41334;47.872;16.384;2023-09-18T15:00:25;68747.22;;;-147.47;100.00
55470;BME280;41334;47.872;16.384;2023-09-18T15:05:27;68747.22;;;-147.47;100.00
55470;BME280;41334;47.872;16.384;2023-09-18T15:10:28;68747.22;;;-147.47;100.00
55470;BME280;41334;47.872;16.384;2023-09-18T15:15:30;68747.22;;;-147.47;100.00
55470;BME280;41334;47.872;16.384;2023-09-18T15:20:33;68747.22;;;-147.47;100.00
55470;BME280;41334;47.872;16.384;2023-09-18T15:25:36;68747.22;;;-147.47;100.00
55470;BME280;41334;47.872;16.384;2023-09-18T15:30:39;68747.22;;;-147.47;100.00
55470;BME280;41334;47.872;16.384;2023-09-18T15:35:41;68747.22;;;-147.47;100.00
55470;BME280;41334;47.872;16.384;2023-09-18T15:40:43;68747.22;;;-147.47;100.00
55470;BME280;41334;47.872;16.384;2023-09-18T15:45:45;68747.22;;;-147.47;100.00
55470;BME280;41334;47.872;16.384;2023-09-18T15:50:48;68747.22;;;-147.47;100.00
55470;BME280;41334;47.872;16.384;2023-09-18T15:55:50;68747.22;;;-147.47;100.00
55470;BME280;41334;47.872;16.384;2023-09-18T16:00:52;68747.22;;;-147.47;100.00
55470;BME280;41334;47.872;16.384;2023-09-18T16:05:54;68747.22;;;-147.47;100.00
55470;BME280;41334;47.872;16.384;2023-09-18T16:10:57;68747.22;;;-147.47;100.00
55470;BME280;41334;47.872;16.384;2023-09-18T16:15:59;68747.22;;;-147.47;100.00
55470;BME280;41334;47.872;16.384;2023-09-18T16:21:02;68747.22;;;-147.47;100.00
55470;BME280;41334;47.872;16.384;2023-09-18T16:26:04;68747.22;;;-147.47;100.00
55470;BME280;41334;47.872;16.384;2023-09-18T16:31:06;68747.22;;;-147.47;100.00
55470;BME280;41334;47.872;16.384;2023-09-18T16:36:10;68747.22;;;-147.47;100.00
55470;BME280;41334;47.872;16.384;2023-09-18T16:41:12;68747.22;;;-147.47;100.00
55470;BME280;41334;47.872;16.384;2023-09-18T16:46:14;68747.22;;;-147.47;100.00
55470;BME280;41334;47.872;16.384;2023-09-18T16:51:16;68747.22;;;-147.47;100.00
55470;BME280;41334;47.872;16.384;2023-09-18T16:56:18;68747.22;;;-147.47;100.00
55470;BME280;41334;47.872;16.384;2023-09-18T17:01:20;68747.22;;;-147.47;100.00
55470;BME280;41334;47.872;16.384;2023-09-18T17:06:23;68747.22;;;-147.47;100.00
55470;BME280;41334;47.872;16.384;2023-09-18T17:11:27;68747.22;;;-147.47;100.00
55470;BME280;41334;47.872;16.384;2023-09-18T17:16:29;68747.22;;;-147.47;100.00
55470;BME280;41334;47.872;16.384;2023-09-18T17:21:33;68747.22;;;-147.47;100.00
55470;BME280;41334;47.872;16.384;2023-09-18T17:26:35;68747.22;;;-147.47;100.00
55470;BME280;41334;47.872;16.384;2023-09-18T17:31:37;68747.22;;;-147.47;100.00
55470;BME280;41334;47.872;16.384;2023-09-18T17:36:39;68747.22;;;-147.47;100.00
55470;BME280;41334;47.872;16.384;2023-09-18T17:41:42;68747.22;;;-147.47;100.00
55470;BME280;41334;47.872;16.384;2023-09-18T17:46:46;68747.22;;;-147.47;100.00
55470;BME280;41334;47.872;16.384;2023-09-18T17:51:48;68747.22;;;-147.47;100.00
55470;BME280;41334;47.872;16.384;2023-09-18T17:56:50;68747.22;;;-147.47;100.00
55470;BME280;41334;47.872;16.384;2023-09-18T18:01:52;68747.22;;;-147.47;100.00
55470;BME280;41334;47.872;16.384;2023-09-18T18:06:54;68747.22;;;-147.47;100.00
55470;BME280;41334;47.872;16.384;2023-09-18T18:11:56;68747.22;;;-147.47;100.00
55470;BME280;41334;47.872;16.384;2023-09-18T18:16:58;68747.22;;;-147.47;100.00
55470;BME280;41334;47.872;16.384;2023-09-18T18:22:01;68747.22;;;-147.47;100.00
55470;BME280;41334;47.872;16.384;2023-09-18T18:27:03;68747.22;;;-147.47;100.00
55470;BME280;41334;47.872;16.384;2023-09-18T18:32:06;68747.22;;;-147.47;100.00
55470;BME280;41334;47.872;16.384;2023-09-18T18:37:09;68747.22;;;-147.47;100.00
55470;BME280;41334;47.872;16.384;2023-09-18T18:42:11;68747.22;;;-147.47;100.00
55470;BME280;41334;47.872;16.384;2023-09-18T18:47:13;68747.22;;;-147.47;100.00
55470;BME280;41334;47.872;16.384;2023-09-18T18:52:15;68747.22;;;-147.47;100.00
55470;BME280;41334;47.872;16.384;2023-09-18T18:57:17;68747.22;;;-147.47;100.00
55470;BME280;41334;47.872;16.384;2023-09-18T19:02:19;68747.22;;;-147.47;100.00
55470;BME280;41334;47.872;16.384;2023-09-18T19:07:21;68747.22;;;-147.47;100.00
55470;BME280;41334;47.872;16.384;2023-09-18T19:12:26;68747.22;;;-147.47;100.00
55470;BME280;41334;47.872;16.384;2023-09-18T19:17:29;68747.22;;;-147.47;100.00
55470;BME280;41334;47.872;16.384;2023-09-18T19:22:31;68747.22;;;-147.47;100.00
55470;BME280;41334;47.872;16.384;2023-09-18T19:27:35;68747.22;;;-147.47;100.00
55470;BME280;41334;47.872;16.384;2023-09-18T19:32:41;68747.22;;;-147.47;100.00
55470;BME280;41334;47.872;16.384;2023-09-18T19:37:43;68747.22;;;-147.47;100.00
55470;BME280;41334;47.872;16.384;2023-09-18T19:42:45;68747.22;;;-147.47;100.00
55470;BME280;41334;47.872;16.384;2023-09-18T19:47:47;68747.22;;;-147.47;100.00
55470;BME280;41334;47.872;16.384;2023-09-18T19:52:49;68747.22;;;-147.47;100.00
55470;BME280;41334;47.872;16.384;2023-09-18T19:57:57;68747.22;;;-147.47;100.00
55470;BME280;41334;47.872;16.384;2023-09-18T20:03:00;68747.22;;;-147.47;100.00
55470;BME280;41334;47.872;16.384;2023-09-18T20:08:02;68747.22;;;-147.47;100.00
55470;BME280;41334;47.872;16.384;2023-09-18T20:13:06;68747.22;;;-147.47;100.00
55470;BME280;41334;47.872;16.384;2023-09-18T20:18:08;68747.22;;;-147.47;100.00
55470;BME280;41334;47.872;16.384;2023-09-18T20:23:10;68747.22;;;-147.47;100.00
55470;BME280;41334;47.872;16.384;2023-09-18T20:28:12;68747.22;;;-147.47;100.00
55470;BME280;41334;47.872;16.384;2023-09-18T20:33:14;68747.22;;;-147.47;100.00
55470;BME280;41334;47.872;16.384;2023-09-18T20:38:16;68747.22;;;-147.47;100.00
55470;BME280;41334;47.872;16.384;2023-09-18T20:43:18;68747.22;;;-147.47;100.00
55470;BME280;41334;47.872;16.384;2023-09-18T20:48:28;68747.22;;;-147.47;100.00
55470;BME280;41334;47.872;16.384;2023-09-18T20:53:32;68747.22;;;-147.47;100.00
55470;BME280;41334;47.872;16.384;2023-09-18T20:58:34;68747.22;;;-147.47;100.00
55470;BME280;41334;47.872;16.384;2023-09-18T21:03:38;68747.22;;;-147.47;100.00
55470;BME280;41334;47.872;16.384;2023-09-18T21:08:40;68747.22;;;-147.47;100.00
55470;BME280;41334;47.872;16.384;2023-09-18T21:13:45;68747.22;;;-147.47;100.00
55470;BME280;41334;47.872;16.384;2023-09-18T21:18:50;68747.22;;;-147.47;100.00
55470;BME280;41334;47.872;16.384;2023-09-18T21:23:52;68747.22;;;-147.47;100.00
55470;BME280;41334;47.872;16.384;2023-09-18T21:28:54;68747.22;;;-147.47;100.00
55470;BME280;41334;47.872;16.384;2023-09-18T21:33:55;68747.22;;;-147.47;100.00
55470;BME280;41334;47.872;16.384;2023-09-18T21:38:58;68747.22;;;-147.47;100.00
55470;BME280;41334;47.872;16.384;2023-09-18T21:43:59;68747.22;;;-147.47;100.00
55470;BME280;41334;47.872;16.384;2023-09-18T21:49:01;68747.22;;;-147.47;100.00
55470;BME280;41334;47.872;16.384;2023-09-18T21:54:07;68747.22;;;-147.47;100.00
55470;BME280;41334;47.872;16.384;2023-09-18T21:59:09;68747.22;;;-147.47;100.00
55470;BME280;41334;47.872;16.384;2023-09-18T22:04:12;68747.22;;;-147.47;100.00
55470;BME280;41334;47.872;16.384;2023-09-18T22:09:25;68747.22;;;-147.47;100.00
55470;BME280;41334;47.872;16.384;2023-09-18T22:14:27;68747.22;;;-147.47;100.00
55470;BME280;41334;47.872;16.384;2023-09-18T22:19:28;68747.22;;;-147.47;100.00
55470;BME280;41334;47.872;16.384;2023-09-18T22:24:31;68747.22;;;-147.47;100.00
55470;BME280;41334;47.872;16.384;2023-09-18T22:29:32;68747.22;;;-147.47;100.00
55470;BME280;41334;47.872;16.384;2023-09-18T22:34:34;68747.22;;;-147.47;100.00
55470;BME280;41334;47.872;16.384;2023-09-18T22:56:16;68747.22;;;-147.47;100.00
55470;BME280;41334;47.872;16.384;2023-09-18T23:01:20;68747.22;;;-147.47;100.00
55470;BME280;41334;47.872;16.384;2023-09-18T23:06:22;68747.22;;;-147.47;100.00
55470;BME280;41334;47.872;16.384;2023-09-18T23:11:28;68747.22;;;-147.47;100.00
55470;BME280;41334;47.872;16.384;2023-09-18T23:16:30;68747.22;;;-147.47;100.00
55470;BME280;41334;47.872;16.384;2023-09-18T23:21:32;68747.22;;;-147.47;100.00
55470;BME280;41334;47.872;16.384;2023-09-18T23:26:34;68747.22;;;-147.47;100.00
55470;BME280;41334;47.872;16.384;2023-09-18T23:31:38;68747.22;;;-147.47;100.00
55470;BME280;41334;47.872;16.384;2023-09-18T23:36:40;68747.22;;;-147.47;100.00
55470;BME280;41334;47.872;16.384;2023-09-18T23:41:42;68747.22;;;-147.47;100.00
55470;BME280;41334;47.872;16.384;2023-09-18T23:46:54;68747.22;;;-147.47;100.00
55470;BME280;41334;47.872;16.384;2023-09-18T23:52:00;68747.22;;;-147.47;100.00
55470;BME280;41334;47.872;16.384;2023-09-18T23:57:05;68747.22;;;-147.47;100.00
